Ormiston, United Kingdom
Current Conditions -  °F | °C
As of 8:20 PM on Sunday 21 Dec 2014 (Local Time) from EGPH Reporting Station
Light Rain Light Rain  
Wind Chill: 52°   Ceiling: 3000
Heat Index: 52°   Visibility: 5mi
Dew Point: 50°   Wind: 20mph
Humidity: 94%   Direction: 250°WSW
Pressure: 29.65"   Gusts: NA
Location:  55.91°N, 2.94°W
Report Text: EGPH 212020Z 25017KT 8000 -RA SCT013 SCT018 BKN030 11/10 Q1004 RERA
Loading
Personal Weather Stations






























Interactive Weather Map New forecast layout! Learn more

10-Day Weather Forecast

Advertisements
Track Severe Weather on mobile